Time;durP1;ratioP1;P1;durP2;ratioP2;P2;SDS_P1;SDS_P2;PMS_P1;PMS_P2;Temp;Humidity;BMP_temperature;BMP_pressure;BME280_temperature;BME280_humidity;BME280_pressure;Samples;Min_cycle;Max_cycle;Signal;HPM_P1;HPM_P2
2023/10/29 00:02:16;;;;;;;3.65;1.35;;;;;;;11.27;100.00;97433.69;5026613;28;20021;-74
2023/10/29 00:04:42;;;;;;;5.82;1.30;;;;;;;11.17;100.00;97439.69;5041933;28;20036;-74
2023/10/29 00:07:07;;;;;;;6.32;1.50;;;;;;;11.14;100.00;97438.31;5044574;28;20021;-74
2023/10/29 00:09:32;;;;;;;2.53;1.40;;;;;;;11.13;100.00;97436.66;5024429;28;20051;-74
2023/10/29 00:11:58;;;;;;;4.82;1.23;;;;;;;11.31;100.00;97434.81;5042469;28;20220;-74
2023/10/29 00:14:24;;;;;;;3.00;1.23;;;;;;;11.26;100.00;97430.13;5053536;28;20045;-74
2023/10/29 00:16:49;;;;;;;3.45;1.50;;;;;;;11.24;100.00;97442.25;5036267;28;20037;-74
2023/10/29 00:19:15;;;;;;;4.78;1.48;;;;;;;11.17;100.00;97432.41;5044067;28;20152;-74
2023/10/29 00:21:40;;;;;;;4.50;1.38;;;;;;;11.16;100.00;97435.34;5043058;28;20379;-74
2023/10/29 00:24:06;;;;;;;2.30;1.25;;;;;;;11.23;100.00;97433.31;5043196;28;20033;-74
2023/10/29 00:26:31;;;;;;;4.30;1.33;;;;;;;11.18;100.00;97433.22;5043457;28;20021;-74
2023/10/29 00:28:56;;;;;;;5.43;1.20;;;;;;;11.22;100.00;97428.16;5042196;28;20346;-74
2023/10/29 00:31:22;;;;;;;4.47;1.25;;;;;;;11.27;100.00;97428.25;5042039;28;20033;-74
2023/10/29 00:33:47;;;;;;;6.22;1.30;;;;;;;11.37;100.00;97431.13;5037229;28;20060;-74
2023/10/29 00:36:12;;;;;;;3.17;1.20;;;;;;;11.47;100.00;97425.91;5040360;28;20204;-74
2023/10/29 00:38:37;;;;;;;5.15;1.20;;;;;;;11.54;100.00;97432.00;5043603;28;20036;-74
2023/10/29 00:41:03;;;;;;;2.70;1.08;;;;;;;11.44;100.00;97414.75;5026044;28;20067;-74
2023/10/29 00:46:05;;;;;;;4.32;1.30;;;;;;;11.53;100.00;97424.13;5040311;28;20018;-74
2023/10/29 00:48:31;;;;;;;2.17;1.00;;;;;;;11.52;100.00;97412.47;5039786;28;20072;-75
2023/10/29 00:50:57;;;;;;;2.60;1.20;;;;;;;11.48;100.00;97410.50;5025278;28;20021;-74
2023/10/29 00:53:24;;;;;;;2.58;0.98;;;;;;;11.57;100.00;97420.69;5024741;28;20111;-74
2023/10/29 00:55:50;;;;;;;2.65;1.00;;;;;;;11.52;100.00;97442.25;5035580;28;20053;-74
2023/10/29 00:58:16;;;;;;;4.82;1.17;;;;;;;11.50;100.00;97430.88;5026174;28;20018;-74
2023/10/29 01:00:42;;;;;;;3.88;1.10;;;;;;;11.42;100.00;97431.22;5039635;28;20029;-74
2023/10/29 01:03:07;;;;;;;3.40;1.00;;;;;;;11.41;100.00;97437.72;5027805;28;20032;-74
2023/10/29 01:05:33;;;;;;;2.55;0.93;;;;;;;11.49;100.00;97436.50;5042187;28;20089;-74
2023/10/29 01:07:58;;;;;;;5.43;1.05;;;;;;;11.43;100.00;97419.34;5023530;28;20071;-74
2023/10/29 01:10:24;;;;;;;3.13;1.15;;;;;;;11.45;100.00;97425.34;5041599;28;20021;-74
2023/10/29 01:12:49;;;;;;;2.38;1.40;;;;;;;11.42;100.00;97423.09;5024523;28;20021;-74
2023/10/29 01:15:15;;;;;;;4.13;1.10;;;;;;;11.38;100.00;97427.38;5044592;28;20026;-74
2023/10/29 01:17:41;;;;;;;3.30;0.82;;;;;;;11.31;100.00;97403.16;5034619;28;20108;-74
2023/10/29 01:20:07;;;;;;;7.25;1.10;;;;;;;11.47;100.00;97408.84;5050137;28;20040;-74
2023/10/29 01:22:33;;;;;;;4.50;1.33;;;;;;;11.48;100.00;97392.38;5051694;28;20076;-74
2023/10/29 01:24:59;;;;;;;3.53;1.00;;;;;;;11.59;100.00;97396.06;5051668;28;20021;-74
2023/10/29 01:27:24;;;;;;;3.97;1.02;;;;;;;11.55;100.00;97405.75;5051628;28;20021;-74
2023/10/29 01:29:49;;;;;;;2.92;1.15;;;;;;;11.52;100.00;97401.63;5033017;28;20025;-74
2023/10/29 01:32:15;;;;;;;1.73;0.88;;;;;;;11.57;100.00;97400.91;5044053;28;20971;-74
2023/10/29 01:34:40;;;;;;;4.57;1.00;;;;;;;11.48;100.00;97389.66;5041454;28;20191;-74
2023/10/29 01:37:05;;;;;;;2.83;0.90;;;;;;;11.42;100.00;97385.19;5023174;28;20096;-74
2023/10/29 01:39:31;;;;;;;1.60;1.00;;;;;;;11.34;100.00;97375.59;5025235;28;20101;-74
2023/10/29 01:41:57;;;;;;;5.82;1.08;;;;;;;11.31;100.00;97384.19;5043165;28;20052;-74
2023/10/29 01:44:23;;;;;;;2.28;0.70;;;;;;;11.35;100.00;97388.06;5042673;28;20021;-74
2023/10/29 01:46:49;;;;;;;3.90;1.23;;;;;;;11.27;100.00;97379.53;5027686;28;20025;-74
2023/10/29 01:49:14;;;;;;;2.75;1.30;;;;;;;11.29;100.00;97382.78;5034223;28;20288;-74
2023/10/29 01:51:39;;;;;;;2.53;0.98;;;;;;;11.33;100.00;97387.47;5034794;28;20055;-73
2023/10/29 01:54:05;;;;;;;1.85;0.95;;;;;;;11.43;100.00;97376.03;5031038;28;20180;-74
2023/10/29 01:56:30;;;;;;;2.72;0.93;;;;;;;11.53;100.00;97351.81;5042820;28;20041;-74
2023/10/29 01:58:57;;;;;;;2.25;0.90;;;;;;;11.65;100.00;97330.06;5035303;28;20243;-74
2023/10/29 02:01:22;;;;;;;2.70;0.90;;;;;;;11.75;100.00;97324.00;5037266;28;20306;-74
2023/10/29 02:03:48;;;;;;;4.13;0.93;;;;;;;11.99;100.00;97313.81;5038763;28;20045;-74
2023/10/29 02:06:20;;;;;;;4.38;0.60;;;;;;;12.15;100.00;97291.25;5037980;22;20045;-79
2023/10/29 02:08:45;;;;;;;1.20;0.50;;;;;;;12.34;100.00;97291.81;5013393;28;20026;-78
2023/10/29 02:11:10;;;;;;;0.90;0.40;;;;;;;12.32;100.00;97283.09;4988286;28;20101;-79
2023/10/29 02:13:36;;;;;;;1.88;0.75;;;;;;;12.43;100.00;97303.03;4986325;28;20026;-78
2023/10/29 02:16:03;;;;;;;6.13;0.80;;;;;;;12.28;100.00;97257.53;4988151;28;20022;-78
2023/10/29 02:18:29;;;;;;;3.33;0.80;;;;;;;12.27;100.00;97283.84;4985905;28;20014;-78
2023/10/29 02:20:54;;;;;;;3.85;0.82;;;;;;;11.94;100.00;97273.09;5007541;28;20065;-78
2023/10/29 02:23:19;;;;;;;3.53;0.98;;;;;;;11.69;100.00;97284.34;5006952;28;20018;-78
2023/10/29 02:25:45;;;;;;;2.42;0.93;;;;;;;11.27;100.00;97299.13;4986248;28;20033;-78
2023/10/29 02:28:10;;;;;;;2.78;1.10;;;;;;;10.98;100.00;97306.47;4996046;28;20026;-78
2023/10/29 02:30:35;;;;;;;3.75;1.00;;;;;;;10.87;100.00;97310.03;4974800;28;20023;-78
2023/10/29 02:33:00;;;;;;;1.95;0.60;;;;;;;10.81;100.00;97279.34;4985973;28;20044;-78
2023/10/29 02:35:26;;;;;;;2.55;0.77;;;;;;;11.23;100.00;97299.84;4999558;28;20026;-78
2023/10/29 02:37:51;;;;;;;3.15;0.63;;;;;;;11.31;100.00;97297.56;4987870;28;20125;-78
2023/10/29 02:40:16;;;;;;;2.60;1.00;;;;;;;11.45;100.00;97308.91;4989192;28;20097;-78
2023/10/29 02:42:42;;;;;;;2.25;0.60;;;;;;;11.55;100.00;97292.81;4984410;28;20098;-78
2023/10/29 02:45:07;;;;;;;2.15;0.63;;;;;;;11.61;100.00;97274.75;4990497;28;20223;-78
2023/10/29 02:47:33;;;;;;;2.88;0.80;;;;;;;11.70;100.00;97261.59;4989271;28;20026;-78
2023/10/29 02:49:58;;;;;;;1.13;0.50;;;;;;;11.92;100.00;97265.22;5005766;28;20019;-77
2023/10/29 02:52:24;;;;;;;1.75;0.60;;;;;;;12.13;100.00;97268.19;4990436;28;20177;-78
2023/10/29 02:54:50;;;;;;;1.30;0.70;;;;;;;12.12;100.00;97237.56;4984258;28;20026;-78
2023/10/29 02:57:15;;;;;;;1.25;0.50;;;;;;;12.33;100.00;97264.94;4989492;28;20053;-78
2023/10/29 02:59:40;;;;;;;2.50;0.52;;;;;;;12.30;100.00;97252.69;5005568;28;20022;-78
2023/10/29 03:02:06;;;;;;;1.27;0.50;;;;;;;12.33;100.00;97265.75;5005629;28;20064;-78
2023/10/29 03:04:33;;;;;;;1.02;0.45;;;;;;;12.27;100.00;97258.63;4988205;28;20093;-79
2023/10/29 03:06:58;;;;;;;3.75;0.60;;;;;;;12.23;100.00;97254.75;5006021;28;20026;-79
2023/10/29 03:09:24;;;;;;;3.17;0.70;;;;;;;12.11;100.00;97249.47;4989327;28;20133;-79
2023/10/29 03:11:49;;;;;;;3.17;0.60;;;;;;;12.18;100.00;97265.53;4989269;28;20030;-78
2023/10/29 03:14:14;;;;;;;1.45;0.60;;;;;;;12.10;100.00;97238.88;4988428;28;20026;-78
2023/10/29 03:16:39;;;;;;;2.35;0.77;;;;;;;12.25;100.00;97277.03;4986467;28;20022;-79
2023/10/29 03:19:05;;;;;;;2.03;0.57;;;;;;;12.09;100.00;97256.22;4989140;28;20378;-78
2023/10/29 03:21:30;;;;;;;3.13;0.65;;;;;;;12.05;100.00;97266.72;5005852;28;20271;-79
2023/10/29 03:23:56;;;;;;;1.25;0.60;;;;;;;11.96;100.00;97260.09;4988997;28;20029;-79
2023/10/29 03:26:21;;;;;;;2.58;0.65;;;;;;;11.96;100.00;97266.34;4998504;28;20030;-80
2023/10/29 03:28:46;;;;;;;1.67;0.60;;;;;;;11.90;100.00;97267.34;4982131;28;20101;-79
2023/10/29 03:31:16;;;;;;;2.35;0.70;;;;;;;11.88;100.00;97274.91;5006185;28;20269;-79
2023/10/29 03:33:42;;;;;;;9.15;1.05;;;;;;;11.77;100.00;97273.09;4988621;28;20029;-76
2023/10/29 03:36:08;;;;;;;3.92;0.60;;;;;;;11.71;100.00;97274.91;5004968;28;20022;-78
2023/10/29 03:38:34;;;;;;;1.48;0.75;;;;;;;11.73;100.00;97271.94;4988918;28;20022;-79
2023/10/29 03:40:59;;;;;;;2.75;0.60;;;;;;;11.66;100.00;97258.59;4989008;28;20048;-78
2023/10/29 03:43:25;;;;;;;3.45;0.68;;;;;;;11.81;100.00;97279.63;5005980;28;20022;-78
2023/10/29 03:45:50;;;;;;;1.58;0.50;;;;;;;11.66;100.00;97253.16;5000094;28;20041;-78
2023/10/29 03:48:15;;;;;;;4.28;0.73;;;;;;;11.81;100.00;97274.22;4997781;28;20025;-78
2023/10/29 03:50:41;;;;;;;3.65;0.80;;;;;;;11.63;100.00;97246.34;5004785;28;20014;-78
2023/10/29 03:53:07;;;;;;;1.20;0.70;;;;;;;11.69;100.00;97257.28;4985640;28;20028;-79
2023/10/29 03:55:36;;;;;;;2.60;0.80;;;;;;;11.80;100.00;97272.59;4981206;28;20132;-78
2023/10/29 03:58:01;;;;;;;2.75;0.68;;;;;;;11.68;100.00;97250.19;4988267;28;20018;-78
2023/10/29 04:00:26;;;;;;;2.58;1.00;;;;;;;11.57;100.00;97266.28;4999414;28;20065;-79
2023/10/29 04:02:52;;;;;;;1.33;0.57;;;;;;;11.36;100.00;97235.34;4984313;28;20034;-76
2023/10/29 04:05:17;;;;;;;3.30;0.68;;;;;;;11.44;100.00;97268.50;5003026;28;20025;-79
2023/10/29 04:07:43;;;;;;;1.55;0.70;;;;;;;11.41;100.00;97284.19;4988661;28;20022;-76
2023/10/29 04:10:09;;;;;;;3.65;0.40;;;;;;;11.23;100.00;97251.13;5005979;28;20085;-78
2023/10/29 04:12:34;;;;;;;1.25;0.70;;;;;;;11.28;100.00;97279.09;5005649;28;20024;-78
2023/10/29 04:14:59;;;;;;;1.40;0.50;;;;;;;11.25;100.00;97267.94;4988200;28;20023;-78
2023/10/29 04:17:25;;;;;;;2.28;0.45;;;;;;;11.17;100.00;97286.22;4986420;28;20034;-76
2023/10/29 04:19:50;;;;;;;2.40;0.60;;;;;;;11.10;100.00;97314.50;4988397;28;20403;-77
2023/10/29 04:22:17;;;;;;;0.75;0.50;;;;;;;10.96;100.00;97300.47;4987815;28;20034;-75
2023/10/29 04:24:43;;;;;;;2.08;0.80;;;;;;;11.01;100.00;97310.56;4987947;28;20085;-78
2023/10/29 04:27:08;;;;;;;2.05;0.52;;;;;;;10.97;100.00;97292.09;4988165;28;20271;-78
2023/10/29 04:29:33;;;;;;;0.95;0.50;;;;;;;11.00;100.00;97271.84;4988700;28;20081;-79
2023/10/29 04:31:59;;;;;;;1.63;0.32;;;;;;;11.41;100.00;97296.91;5008688;28;20025;-79
2023/10/29 04:34:24;;;;;;;3.00;0.45;;;;;;;11.35;100.00;97277.06;4997340;28;20029;-79
2023/10/29 04:36:51;;;;;;;1.52;0.50;;;;;;;11.27;100.00;97280.16;4981751;28;20047;-79
2023/10/29 04:39:20;;;;;;;1.40;0.70;;;;;;;11.29;100.00;97282.63;4988615;28;20050;-78
2023/10/29 04:41:46;;;;;;;3.15;0.73;;;;;;;11.23;100.00;97278.19;5006830;28;20025;-79
2023/10/29 04:44:11;;;;;;;2.13;1.02;;;;;;;11.26;100.00;97292.03;4990259;28;20030;-78
2023/10/29 04:46:37;;;;;;;1.30;0.70;;;;;;;11.31;100.00;97284.00;4989494;28;20029;-79
2023/10/29 04:49:02;;;;;;;0.88;0.57;;;;;;;11.22;100.00;97263.03;4990318;28;20081;-78
2023/10/29 04:51:29;;;;;;;1.92;0.50;;;;;;;11.25;100.00;97276.06;4989424;28;20045;-79
2023/10/29 04:53:55;;;;;;;1.55;0.55;;;;;;;11.25;100.00;97287.72;4986437;28;20019;-78
2023/10/29 04:56:20;;;;;;;2.53;0.60;;;;;;;11.25;100.00;97286.91;4972425;28;20023;-79
2023/10/29 04:58:45;;;;;;;1.05;0.52;;;;;;;11.25;100.00;97281.47;5004479;28;20081;-78
2023/10/29 05:01:11;;;;;;;3.10;0.57;;;;;;;11.25;100.00;97254.41;4983844;28;20030;-79
2023/10/29 05:03:36;;;;;;;1.10;0.70;;;;;;;11.44;100.00;97257.69;4993818;28;20121;-77
2023/10/29 05:06:01;;;;;;;0.88;0.43;;;;;;;11.63;100.00;97276.16;4986298;28;20435;-78
2023/10/29 05:08:27;;;;;;;2.10;0.40;;;;;;;11.59;100.00;97260.63;4988767;28;20096;-79
2023/10/29 05:10:52;;;;;;;1.35;0.73;;;;;;;11.70;100.00;97261.59;4979203;28;20018;-78
2023/10/29 05:13:17;;;;;;;1.40;0.50;;;;;;;11.71;100.00;97257.81;4987526;28;20078;-78
2023/10/29 05:15:43;;;;;;;3.55;0.70;;;;;;;11.73;100.00;97277.34;5006824;28;20192;-80
2023/10/29 05:18:08;;;;;;;2.58;0.77;;;;;;;11.70;100.00;97267.84;4987701;28;20227;-79
2023/10/29 05:20:34;;;;;;;3.67;0.40;;;;;;;11.46;100.00;97244.72;4985090;28;20081;-79
2023/10/29 05:23:00;;;;;;;1.13;0.55;;;;;;;11.42;100.00;97247.09;4987052;28;20018;-78
2023/10/29 05:25:25;;;;;;;1.35;0.82;;;;;;;11.39;100.00;97239.47;5004692;28;20231;-78
2023/10/29 05:28:10;;;;;;;2.85;0.60;;;;;;;11.57;100.00;97241.91;4987346;28;20025;-79
2023/10/29 05:30:36;;;;;;;6.03;0.60;;;;;;;11.56;100.00;97242.16;4980885;28;20030;-79
2023/10/29 05:33:02;;;;;;;3.03;0.70;;;;;;;11.64;100.00;97239.03;4983681;28;20022;-81
2023/10/29 05:35:27;;;;;;;1.05;0.50;;;;;;;11.67;100.00;97238.53;5004292;28;20049;-79
2023/10/29 05:37:52;;;;;;;0.82;0.40;;;;;;;11.64;100.00;97230.91;5005183;28;20042;-78
2023/10/29 05:40:18;;;;;;;1.70;0.50;;;;;;;11.66;100.00;97236.06;4983886;28;20026;-79
2023/10/29 05:42:46;;;;;;;0.73;0.40;;;;;;;11.67;100.00;97245.84;4991467;28;20038;-79
2023/10/29 05:45:12;;;;;;;2.55;0.50;;;;;;;11.69;100.00;97254.56;4976968;28;20255;-79
2023/10/29 05:47:37;;;;;;;1.58;0.50;;;;;;;11.61;100.00;97240.34;4982319;28;20117;-78
2023/10/29 05:50:06;;;;;;;2.88;0.38;;;;;;;11.57;100.00;97227.56;4985505;28;20018;-78
2023/10/29 05:52:31;;;;;;;0.80;0.40;;;;;;;11.75;100.00;97250.84;5004171;28;20026;-78
2023/10/29 05:54:56;;;;;;;1.00;0.50;;;;;;;11.79;100.00;97255.53;4980229;28;20015;-77
2023/10/29 05:57:22;;;;;;;1.98;0.57;;;;;;;11.83;100.00;97266.66;4991489;28;20188;-76
2023/10/29 05:59:48;;;;;;;3.78;0.50;;;;;;;11.90;100.00;97280.09;4986289;28;20215;-76
2023/10/29 06:02:14;;;;;;;1.92;0.50;;;;;;;11.87;100.00;97270.56;4984501;28;20022;-76
2023/10/29 06:04:40;;;;;;;2.17;0.70;;;;;;;11.86;100.00;97263.50;4983361;28;20060;-77
2023/10/29 06:07:06;;;;;;;1.98;1.10;;;;;;;11.75;100.00;97257.06;5000404;28;20022;-78
2023/10/29 06:09:31;;;;;;;1.20;0.70;;;;;;;11.73;100.00;97255.69;4986070;28;20275;-77
2023/10/29 06:11:56;;;;;;;1.25;0.50;;;;;;;11.63;100.00;97256.34;4986300;28;20093;-75
2023/10/29 06:14:22;;;;;;;2.35;0.52;;;;;;;11.62;100.00;97254.72;4986017;28;20018;-75
2023/10/29 06:16:48;;;;;;;0.63;0.52;;;;;;;11.57;100.00;97266.28;5003739;28;20018;-75
2023/10/29 06:19:13;;;;;;;1.30;0.57;;;;;;;11.46;100.00;97280.75;4986177;28;20068;-75
2023/10/29 06:21:39;;;;;;;1.13;0.70;;;;;;;11.26;100.00;97285.81;4995629;28;20006;-76
2023/10/29 06:24:05;;;;;;;6.35;0.50;;;;;;;11.18;100.00;97292.44;4999962;28;20029;-76
2023/10/29 06:26:31;;;;;;;1.55;0.60;;;;;;;11.11;100.00;97287.22;4998511;28;20022;-76
2023/10/29 06:28:56;;;;;;;3.42;0.50;;;;;;;11.04;100.00;97264.06;4997412;28;20037;-76
2023/10/29 06:31:28;;;;;;;1.42;0.40;;;;;;;11.36;100.00;97281.38;4993145;28;20030;-76
2023/10/29 06:33:53;;;;;;;2.75;0.40;;;;;;;11.44;100.00;97296.41;5005539;28;20019;-76
2023/10/29 06:36:18;;;;;;;1.95;0.52;;;;;;;11.38;100.00;97295.50;4997246;28;20335;-76
2023/10/29 06:38:44;;;;;;;0.95;0.50;;;;;;;11.37;100.00;97302.00;5002175;28;20056;-77
2023/10/29 06:41:09;;;;;;;4.90;0.55;;;;;;;11.34;100.00;97307.06;4984295;28;20054;-79
2023/10/29 06:43:37;;;;;;;2.25;0.68;;;;;;;11.34;100.00;97320.59;4997034;28;20037;-79
2023/10/29 06:46:09;;;;;;;1.40;0.60;;;;;;;11.35;100.00;97324.97;4987323;28;20027;-78
2023/10/29 06:48:36;;;;;;;1.75;0.68;;;;;;;11.28;100.00;97324.31;4985545;28;20058;-77
2023/10/29 06:51:11;;;;;;;2.85;1.02;;;;;;;11.27;100.00;97336.22;5002856;28;20045;-78
2023/10/29 06:53:42;;;;;;;1.40;0.98;;;;;;;11.21;100.00;97337.97;4988943;28;20022;-77
2023/10/29 06:56:08;;;;;;;3.03;1.42;;;;;;;11.17;100.00;97348.47;5004508;28;20038;-76
2023/10/29 06:58:33;;;;;;;2.20;1.20;;;;;;;11.11;100.00;97349.47;4985684;28;20026;-80
2023/10/29 07:01:05;;;;;;;3.70;1.20;;;;;;;11.13;100.00;97370.84;4994097;28;20034;-80
2023/10/29 07:03:32;;;;;;;1.90;1.00;;;;;;;11.13;100.00;97377.13;4979435;28;20122;-77
2023/10/29 07:06:08;;;;;;;1.63;0.98;;;;;;;11.16;100.00;97392.88;5005476;28;20018;-78
2023/10/29 07:08:35;;;;;;;3.75;1.77;;;;;;;11.15;100.00;97402.03;5005775;28;20042;-78
2023/10/29 07:11:02;;;;;;;3.65;1.02;;;;;;;11.17;100.00;97389.09;4978857;23;20384;-59
2023/10/29 07:13:28;;;;;;;1.88;0.85;;;;;;;11.28;100.00;97390.09;4945814;28;20083;-59
2023/10/29 07:15:54;;;;;;;3.28;1.45;;;;;;;11.39;100.00;97391.09;4965215;28;20031;-60
2023/10/29 07:18:19;;;;;;;2.25;1.30;;;;;;;11.53;100.00;97397.88;4964619;28;20045;-60
2023/10/29 07:20:45;;;;;;;3.45;1.30;;;;;;;11.61;100.00;97402.06;4946166;29;20114;-59
2023/10/29 07:23:11;;;;;;;2.10;1.15;;;;;;;11.67;100.00;97405.69;4943467;29;20039;-59
2023/10/29 07:25:37;;;;;;;3.80;1.00;;;;;;;11.71;100.00;97414.94;4948935;29;20035;-59
2023/10/29 07:28:02;;;;;;;2.10;1.10;;;;;;;11.84;100.00;97406.50;4949900;28;20078;-61
2023/10/29 07:30:28;;;;;;;2.70;0.85;;;;;;;12.01;100.00;97420.91;4944001;28;20086;-59
2023/10/29 07:32:53;;;;;;;2.92;1.20;;;;;;;12.09;100.00;97419.69;4936894;29;20448;-59
2023/10/29 07:35:19;;;;;;;2.83;1.25;;;;;;;12.22;100.00;97427.47;4950479;28;20034;-59
2023/10/29 07:37:44;;;;;;;2.67;1.33;;;;;;;12.26;100.00;97422.38;4949856;29;20130;-61
2023/10/29 07:40:10;;;;;;;2.97;1.73;;;;;;;12.21;100.00;97422.31;4954934;29;20023;-60
2023/10/29 07:42:35;;;;;;;3.60;2.47;;;;;;;12.24;100.00;97428.06;4948050;29;20054;-59
2023/10/29 07:45:01;;;;;;;4.70;2.95;;;;;;;12.30;100.00;97430.84;4943155;29;20035;-60
2023/10/29 07:47:26;;;;;;;9.60;4.55;;;;;;;12.32;100.00;97431.44;4961160;28;20035;-59
2023/10/29 07:49:52;;;;;;;10.00;3.42;;;;;;;12.39;100.00;97440.19;4945217;29;20027;-60
2023/10/29 07:52:17;;;;;;;10.88;4.05;;;;;;;12.48;100.00;97447.69;4942525;29;20027;-59
2023/10/29 07:54:43;;;;;;;8.60;3.00;;;;;;;12.46;100.00;97449.81;4945792;29;20121;-60
2023/10/29 07:57:08;;;;;;;7.82;3.22;;;;;;;12.58;100.00;97451.63;4952705;29;20032;-60
2023/10/29 07:59:34;;;;;;;6.28;2.60;;;;;;;12.60;100.00;97446.75;4942538;29;20175;-60
2023/10/29 08:02:01;;;;;;;5.55;1.90;;;;;;;12.66;100.00;97443.88;4945739;29;20035;-59
2023/10/29 08:04:28;;;;;;;9.02;2.38;;;;;;;12.81;100.00;97459.53;4939794;29;20020;-59
2023/10/29 08:06:54;;;;;;;8.20;2.38;;;;;;;12.88;100.00;97452.03;4948614;29;20062;-59
2023/10/29 08:09:19;;;;;;;4.03;1.75;;;;;;;12.87;100.00;97439.53;5006204;23;20097;-72
2023/10/29 08:11:44;;;;;;;4.50;1.42;;;;;;;13.04;100.00;97444.88;5041907;28;20029;-72
2023/10/29 08:14:10;;;;;;;4.22;1.35;;;;;;;13.10;100.00;97434.94;5040538;28;20048;-73
2023/10/29 08:16:35;;;;;;;3.40;1.20;;;;;;;13.30;100.00;97439.81;5041444;28;20038;-72
2023/10/29 08:19:00;;;;;;;4.05;1.40;;;;;;;13.37;100.00;97452.13;5038969;28;20142;-73
2023/10/29 08:21:26;;;;;;;5.20;1.30;;;;;;;13.46;100.00;97438.06;5040410;28;20031;-76
2023/10/29 08:23:51;;;;;;;3.95;2.13;;;;;;;13.42;100.00;97445.09;5043509;28;20032;-76
2023/10/29 08:26:17;;;;;;;8.70;5.72;;;;;;;13.38;100.00;97451.03;5043474;28;20025;-77
2023/10/29 08:28:42;;;;;;;7.20;3.90;;;;;;;13.24;100.00;97440.81;5027204;28;21443;-80
2023/10/29 08:31:08;;;;;;;8.23;4.13;;;;;;;13.15;100.00;97440.41;5026827;28;20025;-74
2023/10/29 08:33:34;;;;;;;7.78;2.92;;;;;;;13.15;100.00;97424.97;5044580;28;20021;-76
2023/10/29 08:35:59;;;;;;;26.00;19.88;;;;;;;13.03;100.00;97448.69;5027893;28;20021;-72
2023/10/29 08:38:24;;;;;;;13.95;10.50;;;;;;;13.10;100.00;97445.81;5043225;28;20021;-76
2023/10/29 08:40:50;;;;;;;6.82;3.55;;;;;;;13.15;100.00;97464.84;5051438;28;20026;-74
2023/10/29 08:43:16;;;;;;;14.90;6.70;;;;;;;13.19;100.00;97474.13;5044079;28;20221;-75
2023/10/29 08:45:41;;;;;;;8.48;4.10;;;;;;;13.09;100.00;97463.16;5025963;28;20135;-74
2023/10/29 08:48:07;;;;;;;9.45;4.30;;;;;;;13.05;100.00;97473.69;5041699;28;20084;-76
2023/10/29 08:50:33;;;;;;;6.22;3.70;;;;;;;13.12;100.00;97474.31;5043755;28;20316;-75
2023/10/29 08:52:58;;;;;;;5.78;2.67;;;;;;;13.08;100.00;97477.81;5026110;28;20021;-79
2023/10/29 08:55:23;;;;;;;6.18;2.58;;;;;;;13.11;100.00;97483.53;5026140;28;20033;-76
2023/10/29 08:57:49;;;;;;;7.93;3.15;;;;;;;13.05;100.00;97479.13;5001847;28;20029;-75
2023/10/29 09:00:15;;;;;;;7.10;2.50;;;;;;;13.12;100.00;97477.03;5043682;28;20348;-74
2023/10/29 09:02:41;;;;;;;8.88;2.58;;;;;;;13.02;100.00;97462.50;5045930;28;20283;-75
2023/10/29 09:05:07;;;;;;;6.07;2.75;;;;;;;13.05;100.00;97462.03;5007908;28;20168;-77
2023/10/29 09:07:33;;;;;;;5.43;2.38;;;;;;;13.06;100.00;97458.22;5035821;28;20029;-81
2023/10/29 09:09:59;;;;;;;5.70;2.03;;;;;;;13.07;100.00;97449.00;5027683;28;20025;-76
2023/10/29 09:12:27;;;;;;;7.47;3.78;;;;;;;12.96;100.00;97434.47;5035080;28;20048;-80
2023/10/29 09:14:52;;;;;;;3.30;1.67;;;;;;;13.09;100.00;97452.28;5030773;28;20028;-76
2023/10/29 09:17:17;;;;;;;4.20;1.52;;;;;;;13.10;100.00;97448.50;5051481;28;20025;-76
2023/10/29 09:19:43;;;;;;;4.80;2.42;;;;;;;13.28;100.00;97401.22;5041964;28;20041;-79
2023/10/29 09:22:08;;;;;;;2.10;1.25;;;;;;;13.06;100.00;97460.94;5040632;28;20025;-75
2023/10/29 09:24:33;;;;;;;2.83;1.48;;;;;;;13.28;100.00;97431.06;5043199;28;20022;-76
2023/10/29 09:26:59;;;;;;;5.80;1.55;;;;;;;13.31;100.00;97392.56;5053701;28;20040;-76
2023/10/29 09:29:24;;;;;;;2.72;1.42;;;;;;;13.41;100.00;97399.97;5027814;28;20025;-74
2023/10/29 09:31:52;;;;;;;2.03;1.25;;;;;;;13.47;100.00;97396.25;5022525;28;20230;-73
2023/10/29 09:34:20;;;;;;;4.15;1.67;;;;;;;13.51;100.00;97406.34;5044503;28;20040;-79
2023/10/29 09:36:45;;;;;;;6.07;1.80;;;;;;;13.53;100.00;97398.75;5042500;28;20025;-77
2023/10/29 09:39:10;;;;;;;2.55;1.17;;;;;;;13.59;100.00;97402.34;5025170;28;20272;-77
2023/10/29 09:41:42;;;;;;;1.85;1.20;;;;;;;13.76;100.00;97407.69;5024803;28;20079;-74
2023/10/29 09:44:17;;;;;;;5.25;1.23;;;;;;;13.81;100.00;97405.00;5044301;28;20211;-73
2023/10/29 09:46:44;;;;;;;4.47;1.20;;;;;;;13.90;100.00;97391.75;5043142;28;20024;-73
2023/10/29 09:49:13;;;;;;;1.88;1.00;;;;;;;13.87;100.00;97395.00;5044060;28;20203;-74
2023/10/29 09:51:40;;;;;;;2.53;1.20;;;;;;;13.78;100.00;97408.22;5038968;28;20025;-72
2023/10/29 09:54:06;;;;;;;2.67;1.23;;;;;;;13.71;100.00;97410.34;5018186;28;20020;-73
2023/10/29 09:56:33;;;;;;;3.90;1.45;;;;;;;13.64;100.00;97396.94;5046971;28;20037;-73
2023/10/29 09:58:59;;;;;;;10.93;5.95;;;;;;;13.53;100.00;97409.63;5024115;28;20017;-73
2023/10/29 10:01:24;;;;;;;2.65;1.35;;;;;;;13.63;100.00;97408.09;5045116;28;20021;-74
2023/10/29 10:03:50;;;;;;;1.52;0.80;;;;;;;13.35;100.00;97410.78;5033582;28;20322;-74
2023/10/29 10:06:15;;;;;;;1.02;0.63;;;;;;;13.03;100.00;97399.00;5044425;28;20029;-74
2023/10/29 10:08:40;;;;;;;2.47;0.80;;;;;;;12.71;100.00;97389.66;5039049;28;20256;-74
2023/10/29 10:11:21;;;;;;;1.95;0.73;;;;;;;12.71;100.00;97392.38;5041965;28;20083;-74
2023/10/29 10:13:46;;;;;;;3.75;0.77;;;;;;;12.71;100.00;97397.81;5041628;28;20779;-74
2023/10/29 10:16:14;;;;;;;7.65;3.72;;;;;;;12.81;100.00;97393.56;5026691;28;20032;-74
2023/10/29 10:18:53;;;;;;;1.75;1.30;;;;;;;12.90;100.00;97384.72;5038211;28;20025;-74
2023/10/29 10:21:20;;;;;;;4.63;1.10;;;;;;;13.03;100.00;97377.28;5044744;28;20285;-74
2023/10/29 10:23:48;;;;;;;3.65;1.15;;;;;;;13.09;100.00;97379.78;5042770;28;20032;-75
2023/10/29 10:26:14;;;;;;;2.30;1.35;;;;;;;13.15;100.00;97376.06;5050807;28;20036;-74
2023/10/29 10:29:00;;;;;;;4.70;1.30;;;;;;;13.29;100.00;97371.09;5045367;28;20026;-75
2023/10/29 10:31:27;;;;;;;1.98;1.13;;;;;;;13.34;100.00;97357.56;5041501;28;20029;-74
2023/10/29 10:34:11;;;;;;;4.10;0.90;;;;;;;13.41;100.00;97362.75;5030967;28;20017;-74
2023/10/29 10:36:37;;;;;;;3.72;0.93;;;;;;;13.50;100.00;97361.22;5040418;28;20029;-74
2023/10/29 10:39:03;;;;;;;3.78;0.88;;;;;;;13.55;100.00;97353.13;5039798;28;20032;-74
2023/10/29 10:42:03;;;;;;;2.13;0.70;;;;;;;13.67;100.00;97352.94;5047900;28;20022;-74
2023/10/29 10:44:29;;;;;;;2.05;0.73;;;;;;;13.81;100.00;97345.19;5015107;28;20208;-74
2023/10/29 10:46:57;;;;;;;2.53;0.90;;;;;;;13.98;100.00;97351.28;5028345;28;20088;-74
2023/10/29 10:49:23;;;;;;;1.75;0.82;;;;;;;13.98;100.00;97340.41;5049763;28;20225;-74
2023/10/29 10:51:54;;;;;;;1.48;0.73;;;;;;;14.02;100.00;97340.72;5043409;28;20033;-74
2023/10/29 10:54:23;;;;;;;2.30;0.65;;;;;;;14.12;100.00;97324.50;5042236;28;20024;-74
2023/10/29 10:56:50;;;;;;;3.00;0.60;;;;;;;14.11;100.00;97316.56;5047236;28;20028;-74
2023/10/29 10:59:15;;;;;;;1.63;0.60;;;;;;;14.00;100.00;97321.13;5027988;28;20017;-74
2023/10/29 11:01:41;;;;;;;1.25;0.70;;;;;;;14.06;100.00;97322.78;5042521;28;20032;-74
2023/10/29 11:04:09;;;;;;;1.20;0.60;;;;;;;14.12;100.00;97323.63;5043551;28;20040;-74
2023/10/29 11:06:36;;;;;;;1.55;0.60;;;;;;;14.19;100.00;97318.78;5032890;28;20027;-74
2023/10/29 11:09:05;;;;;;;2.00;0.70;;;;;;;14.37;100.00;97325.69;5027520;28;20064;-73
2023/10/29 11:11:38;;;;;;;0.40;0.40;;;;;;;14.51;100.00;97320.59;5041892;28;20051;-73
2023/10/29 11:14:11;;;;;;;1.80;0.60;;;;;;;14.57;100.00;97308.69;5026288;28;20017;-74
2023/10/29 11:16:54;;;;;;;5.65;0.70;;;;;;;14.73;100.00;97302.22;5029694;28;20097;-74
2023/10/29 11:19:44;;;;;;;1.80;0.70;;;;;;;14.83;100.00;97306.91;5040593;28;20237;-74
2023/10/29 11:22:12;;;;;;;1.30;0.70;;;;;;;14.92;100.00;97320.78;5044089;28;20095;-73
2023/10/29 11:24:38;;;;;;;1.63;0.63;;;;;;;14.98;100.00;97303.38;5043853;28;20044;-74